createdAt,value
2023-12-03T00:00:18.968Z,34.40
2023-12-03T00:01:51.095Z,33.70
2023-12-03T00:03:24.606Z,28.80
2023-12-03T00:04:56.952Z,34.30
2023-12-03T00:06:29.255Z,35.20
2023-12-03T00:08:04.041Z,32.90
2023-12-03T00:09:38.336Z,39.90
2023-12-03T00:11:11.057Z,38.60
2023-12-03T00:12:43.102Z,30.70
2023-12-03T00:14:15.451Z,32.70
2023-12-03T00:15:47.558Z,38.70
2023-12-03T00:17:19.552Z,36.30
2023-12-03T00:18:52.020Z,31.40
2023-12-03T00:20:24.195Z,33.70
2023-12-03T00:21:56.206Z,32.50
2023-12-03T00:23:28.964Z,29.00
2023-12-03T00:25:03.159Z,29.10
2023-12-03T00:26:35.146Z,28.40
2023-12-03T00:28:07.261Z,30.40
2023-12-03T00:29:40.241Z,39.10
2023-12-03T00:31:12.179Z,33.20
2023-12-03T00:32:46.107Z,38.70
2023-12-03T00:34:21.407Z,33.00
2023-12-03T00:35:53.679Z,30.90
2023-12-03T00:37:25.511Z,32.80
2023-12-03T00:38:58.779Z,35.00
2023-12-03T00:40:31.132Z,31.70
2023-12-03T00:42:03.244Z,33.80
2023-12-03T00:43:35.273Z,26.80
2023-12-03T00:45:08.486Z,26.00
2023-12-03T00:46:40.651Z,34.60
2023-12-03T00:48:12.603Z,29.00
2023-12-03T00:49:45.793Z,32.00
2023-12-03T00:51:18.127Z,26.50
2023-12-03T00:52:50.244Z,30.60
2023-12-03T00:54:22.226Z,33.10
2023-12-03T00:55:55.669Z,35.90
2023-12-03T00:57:27.699Z,36.00
2023-12-03T00:58:59.764Z,32.50
2023-12-03T01:00:33.474Z,29.00
2023-12-03T01:02:06.215Z,33.30
2023-12-03T01:03:39.341Z,34.40
2023-12-03T01:05:11.437Z,25.90
2023-12-03T01:06:44.944Z,32.70
2023-12-03T01:08:17.012Z,33.50
2023-12-03T01:09:49.500Z,32.60
2023-12-03T01:11:35.169Z,29.10
2023-12-03T01:13:09.233Z,36.50
2023-12-03T01:14:41.238Z,24.60
2023-12-03T01:16:17.828Z,34.00
2023-12-03T01:17:49.767Z,33.90
2023-12-03T01:19:21.801Z,29.40
2023-12-03T01:20:53.852Z,32.40
2023-12-03T01:22:25.979Z,27.20
2023-12-03T01:23:59.559Z,26.50
2023-12-03T01:25:32.351Z,27.00
2023-12-03T01:27:06.165Z,33.00
2023-12-03T01:28:38.349Z,33.10
2023-12-03T01:30:12.989Z,33.30
2023-12-03T01:31:45.357Z,30.30
2023-12-03T01:33:17.446Z,31.70
2023-12-03T01:34:49.414Z,38.50
2023-12-03T01:36:21.416Z,26.10
2023-12-03T01:37:53.392Z,36.30
2023-12-03T01:39:27.187Z,34.10
2023-12-03T01:40:59.144Z,34.80
2023-12-03T01:42:32.485Z,37.00
2023-12-03T01:44:05.186Z,35.00
2023-12-03T01:45:39.843Z,35.00
2023-12-03T01:47:11.889Z,41.30
2023-12-03T01:48:46.322Z,31.20
2023-12-03T01:50:20.587Z,39.60
2023-12-03T01:51:53.624Z,37.90
2023-12-03T01:53:28.498Z,38.00
2023-12-03T01:55:01.585Z,30.60
2023-12-03T01:56:34.808Z,38.40
2023-12-03T01:58:07.446Z,40.80
2023-12-03T01:59:39.690Z,34.10
2023-12-03T02:01:11.698Z,37.00
2023-12-03T02:02:44.264Z,35.20
2023-12-03T02:04:16.382Z,34.10
2023-12-03T02:06:12.878Z,36.90
2023-12-03T02:07:45.009Z,39.10
2023-12-03T02:09:17.976Z,43.20
2023-12-03T02:10:49.870Z,36.00
2023-12-03T02:12:21.950Z,38.20
2023-12-03T02:13:54.130Z,27.00
2023-12-03T02:15:27.023Z,40.30
2023-12-03T02:16:59.400Z,37.70
2023-12-03T02:18:34.736Z,38.50
2023-12-03T02:20:09.831Z,43.70
2023-12-03T02:21:42.241Z,42.00
2023-12-03T02:23:16.224Z,40.70
2023-12-03T02:24:48.224Z,36.70
2023-12-03T02:26:20.435Z,37.60
2023-12-03T02:27:52.524Z,40.80
2023-12-03T02:29:24.499Z,34.00
2023-12-03T02:30:56.542Z,41.50
2023-12-03T02:32:30.304Z,31.80
2023-12-03T02:34:12.628Z,39.30
2023-12-03T02:35:44.710Z,42.50
2023-12-03T02:37:17.274Z,41.50
2023-12-03T02:38:49.191Z,43.80
2023-12-03T02:40:21.332Z,39.30
2023-12-03T02:41:53.340Z,40.50
2023-12-03T02:43:29.045Z,43.10
2023-12-03T02:45:01.088Z,44.20
2023-12-03T02:46:33.055Z,39.10
2023-12-03T02:48:06.417Z,38.10
2023-12-03T02:49:38.746Z,43.10
2023-12-03T02:51:11.267Z,44.70
2023-12-03T02:52:43.371Z,44.10
2023-12-03T02:54:15.301Z,44.80
2023-12-03T02:55:47.246Z,34.90
2023-12-03T02:57:19.115Z,41.80
2023-12-03T02:58:51.115Z,40.00
2023-12-03T03:00:23.067Z,43.70
2023-12-03T03:01:55.303Z,47.10
2023-12-03T03:03:27.404Z,36.00
2023-12-03T03:04:59.590Z,41.60
2023-12-03T03:06:33.042Z,38.80
2023-12-03T03:08:05.351Z,46.40
2023-12-03T03:09:37.319Z,39.10
2023-12-03T03:11:09.997Z,41.20
2023-12-03T03:12:42.443Z,40.20
2023-12-03T03:14:14.538Z,39.50
2023-12-03T03:15:47.129Z,44.00
2023-12-03T03:17:19.086Z,42.10
2023-12-03T03:18:52.749Z,43.80
2023-12-03T03:20:24.731Z,35.00
2023-12-03T03:21:57.934Z,44.00
2023-12-03T03:23:30.177Z,39.80
2023-12-03T03:25:04.735Z,46.60
2023-12-03T03:26:40.110Z,36.60
2023-12-03T03:28:12.112Z,41.50
2023-12-03T03:29:43.983Z,46.40
2023-12-03T03:31:15.893Z,40.40
2023-12-03T03:32:47.806Z,50.10
2023-12-03T03:34:19.922Z,37.30
2023-12-03T03:35:52.134Z,38.00
2023-12-03T03:37:24.049Z,43.60
2023-12-03T03:38:55.993Z,39.90
2023-12-03T03:40:27.998Z,39.90
2023-12-03T03:41:59.869Z,47.90
2023-12-03T03:43:31.940Z,41.10
2023-12-03T03:45:04.741Z,42.40
2023-12-03T03:46:37.216Z,39.50
2023-12-03T03:48:09.192Z,40.90
2023-12-03T03:49:42.782Z,41.60
2023-12-03T03:51:14.752Z,40.90
2023-12-03T03:52:46.696Z,44.00
2023-12-03T03:54:18.659Z,42.00
2023-12-03T03:55:50.993Z,41.30
2023-12-03T03:57:24.889Z,43.10
2023-12-03T03:58:56.886Z,43.10
2023-12-03T04:00:30.069Z,43.70
2023-12-03T04:02:03.113Z,42.00
2023-12-03T04:03:35.942Z,45.80
2023-12-03T04:05:09.524Z,42.70
2023-12-03T04:06:45.942Z,32.80
2023-12-03T04:08:20.049Z,28.90
2023-12-03T04:09:52.027Z,40.60
2023-12-03T04:11:24.322Z,37.80
2023-12-03T04:12:57.901Z,37.80
2023-12-03T04:14:30.834Z,36.20
2023-12-03T04:16:03.119Z,42.30
2023-12-03T04:17:35.063Z,41.50
2023-12-03T04:19:07.988Z,46.20
2023-12-03T04:20:40.090Z,45.50
2023-12-03T04:22:12.044Z,32.80
2023-12-03T04:23:44.369Z,37.40
2023-12-03T04:25:16.633Z,38.20
2023-12-03T04:26:50.112Z,40.80
2023-12-03T04:28:21.927Z,35.40
2023-12-03T04:29:53.829Z,37.40
2023-12-03T04:31:30.825Z,35.00
2023-12-03T04:33:03.036Z,41.10
2023-12-03T04:34:35.117Z,47.10
2023-12-03T04:36:10.730Z,41.40
2023-12-03T04:37:42.687Z,28.40
2023-12-03T04:39:14.564Z,37.30
2023-12-03T04:40:46.486Z,30.70
2023-12-03T04:42:19.145Z,34.90
2023-12-03T04:43:51.174Z,35.90
2023-12-03T04:45:23.284Z,39.30
2023-12-03T04:46:55.655Z,39.80
2023-12-03T04:48:28.178Z,38.00
2023-12-03T04:50:00.684Z,40.00
2023-12-03T04:51:32.656Z,39.10
2023-12-03T04:53:04.533Z,36.80
2023-12-03T04:54:38.179Z,35.90
2023-12-03T04:56:12.578Z,39.90
2023-12-03T04:57:44.815Z,36.10
2023-12-03T04:59:18.632Z,26.90
2023-12-03T05:00:50.688Z,33.00
2023-12-03T05:02:27.692Z,34.10
2023-12-03T05:03:59.593Z,36.20
2023-12-03T05:05:31.515Z,32.90
2023-12-03T05:07:03.758Z,31.70
2023-12-03T05:08:35.777Z,28.50
2023-12-03T05:10:08.784Z,35.00
2023-12-03T05:11:41.797Z,33.00
2023-12-03T05:13:17.070Z,35.10
2023-12-03T05:14:49.072Z,35.20
2023-12-03T05:16:20.961Z,33.50
2023-12-03T05:17:52.960Z,36.70
2023-12-03T05:19:25.858Z,33.50
2023-12-03T05:20:58.998Z,32.40
2023-12-03T05:22:31.170Z,31.10
2023-12-03T05:24:03.211Z,34.00
2023-12-03T05:25:35.116Z,30.60
2023-12-03T05:27:07.208Z,30.10
2023-12-03T05:28:39.656Z,28.60
2023-12-03T05:30:14.438Z,30.80
2023-12-03T05:31:46.740Z,30.90
2023-12-03T05:33:19.208Z,35.60
2023-12-03T05:34:51.474Z,31.30
2023-12-03T05:36:26.372Z,33.90
2023-12-03T05:37:58.386Z,32.50
2023-12-03T05:39:32.966Z,30.20
2023-12-03T05:41:05.036Z,30.80
2023-12-03T05:42:37.110Z,28.80
2023-12-03T05:44:09.690Z,33.20
2023-12-03T05:45:43.874Z,29.30
2023-12-03T05:47:16.940Z,32.30
2023-12-03T05:48:49.095Z,29.80
2023-12-03T05:50:22.272Z,33.90
2023-12-03T05:51:55.769Z,32.10
2023-12-03T05:53:29.965Z,28.30
2023-12-03T05:55:02.014Z,24.40
2023-12-03T05:56:33.936Z,27.40
2023-12-03T05:58:06.640Z,30.20
2023-12-03T05:59:38.625Z,28.30
2023-12-03T06:01:10.609Z,26.70
2023-12-03T06:02:45.445Z,30.60
2023-12-03T06:04:17.389Z,27.50
2023-12-03T06:05:49.556Z,27.20
2023-12-03T06:07:21.660Z,29.40
2023-12-03T06:08:53.826Z,29.40
2023-12-03T06:10:25.679Z,24.70
2023-12-03T06:11:57.659Z,33.60
2023-12-03T06:13:29.765Z,27.30
2023-12-03T06:15:01.732Z,26.80
2023-12-03T06:16:33.744Z,26.90
2023-12-03T06:18:05.840Z,28.00
2023-12-03T06:19:38.741Z,27.10
2023-12-03T06:21:10.652Z,21.70
2023-12-03T06:22:42.558Z,29.50
2023-12-03T06:24:14.460Z,30.60
2023-12-03T06:25:46.539Z,24.30
2023-12-03T06:27:18.512Z,22.40
2023-12-03T06:28:50.426Z,27.80
2023-12-03T06:30:22.690Z,24.30
2023-12-03T06:31:54.614Z,26.50
2023-12-03T06:33:27.940Z,27.10
2023-12-03T06:35:00.657Z,26.10
2023-12-03T06:36:32.874Z,28.80
2023-12-03T06:38:04.893Z,25.40
2023-12-03T06:39:36.814Z,27.30
2023-12-03T06:41:08.857Z,24.30
2023-12-03T06:42:44.116Z,21.00
2023-12-03T06:44:30.954Z,25.30
2023-12-03T06:46:11.887Z,27.10
2023-12-03T06:47:44.189Z,26.30
2023-12-03T06:49:16.195Z,23.80
2023-12-03T06:50:49.690Z,25.60
2023-12-03T06:52:21.804Z,27.50
2023-12-03T06:53:53.805Z,21.70
2023-12-03T06:55:25.745Z,27.30
2023-12-03T06:56:57.910Z,23.70
2023-12-03T06:58:29.991Z,25.00
2023-12-03T07:00:02.037Z,25.40
2023-12-03T07:01:37.485Z,23.20
2023-12-03T07:03:11.396Z,27.00
2023-12-03T07:04:43.428Z,29.70
2023-12-03T07:06:17.186Z,29.50
2023-12-03T07:07:51.227Z,26.60
2023-12-03T07:09:37.521Z,23.20
2023-12-03T07:11:14.828Z,25.90
2023-12-03T07:12:47.862Z,26.70
2023-12-03T07:14:19.800Z,22.30
2023-12-03T07:15:52.239Z,25.80
2023-12-03T07:17:24.306Z,24.10
2023-12-03T07:18:56.494Z,25.10
2023-12-03T07:20:29.968Z,28.70
2023-12-03T07:22:02.008Z,29.80
2023-12-03T07:23:34.246Z,24.50
2023-12-03T07:25:09.299Z,22.90
2023-12-03T07:26:45.629Z,27.00
2023-12-03T07:28:24.010Z,26.40
2023-12-03T07:29:57.526Z,28.50
2023-12-03T07:31:29.467Z,25.90
2023-12-03T07:33:01.570Z,27.10
2023-12-03T07:34:33.965Z,27.00
2023-12-03T07:36:06.393Z,25.80
2023-12-03T07:37:41.276Z,26.60
2023-12-03T07:39:13.845Z,28.80
2023-12-03T07:40:46.990Z,25.90
2023-12-03T07:42:18.902Z,22.70
2023-12-03T07:43:50.923Z,21.10
2023-12-03T07:45:23.329Z,26.40
2023-12-03T07:46:55.463Z,26.60
2023-12-03T07:48:27.564Z,30.30
2023-12-03T07:50:01.031Z,29.10
2023-12-03T07:51:33.440Z,33.70
2023-12-03T07:53:05.392Z,27.80
2023-12-03T07:54:37.445Z,33.10
2023-12-03T07:56:10.129Z,29.00
2023-12-03T07:57:42.138Z,20.50
2023-12-03T07:59:37.609Z,22.80
2023-12-03T08:01:11.046Z,27.30
2023-12-03T08:02:43.766Z,24.30
2023-12-03T08:04:16.171Z,24.20
2023-12-03T08:05:48.361Z,26.80
2023-12-03T08:07:20.491Z,26.60
2023-12-03T08:08:55.375Z,22.60
2023-12-03T08:10:27.891Z,24.80
2023-12-03T08:11:59.803Z,18.10
2023-12-03T08:13:31.740Z,21.90
2023-12-03T08:15:03.874Z,25.50
2023-12-03T08:16:35.624Z,22.60
2023-12-03T08:18:07.486Z,23.40
2023-12-03T08:19:40.709Z,18.70
2023-12-03T08:21:12.797Z,20.40
2023-12-03T08:22:44.822Z,26.60
2023-12-03T08:24:16.626Z,26.90
2023-12-03T08:25:48.501Z,24.30
2023-12-03T08:27:20.681Z,22.10
2023-12-03T08:28:52.798Z,23.90
2023-12-03T08:30:26.829Z,22.20
2023-12-03T08:31:59.066Z,25.70
2023-12-03T08:33:31.469Z,28.10
2023-12-03T08:35:03.512Z,20.40
2023-12-03T08:36:36.152Z,22.70
2023-12-03T08:38:08.108Z,18.50
2023-12-03T08:39:39.954Z,24.50
2023-12-03T08:41:11.764Z,27.40
2023-12-03T08:42:45.720Z,30.50
2023-12-03T08:44:17.589Z,23.20
2023-12-03T08:45:49.434Z,19.30
2023-12-03T08:47:21.305Z,22.30
2023-12-03T08:48:54.117Z,21.80
2023-12-03T08:50:28.605Z,20.70
2023-12-03T08:52:00.438Z,23.70
2023-12-03T08:53:32.483Z,18.90
2023-12-03T08:55:05.380Z,23.60
2023-12-03T08:56:37.163Z,24.30
2023-12-03T08:58:08.924Z,22.60
2023-12-03T08:59:41.111Z,20.80
2023-12-03T09:01:12.924Z,23.00
2023-12-03T09:02:46.518Z,22.00
2023-12-03T09:04:19.647Z,21.40
2023-12-03T09:05:51.526Z,21.20
2023-12-03T09:07:23.302Z,22.30
2023-12-03T09:08:55.117Z,23.10
2023-12-03T09:10:26.896Z,21.60
2023-12-03T09:11:58.782Z,19.00
2023-12-03T09:13:30.631Z,20.40
2023-12-03T09:15:02.521Z,24.50
2023-12-03T09:16:34.445Z,19.60
2023-12-03T09:18:06.591Z,20.10
2023-12-03T09:19:38.429Z,20.50
2023-12-03T09:21:13.090Z,21.20
2023-12-03T09:22:45.099Z,20.90
2023-12-03T09:24:17.784Z,21.50
2023-12-03T09:25:49.788Z,20.40
2023-12-03T09:27:21.646Z,20.70
2023-12-03T09:28:53.655Z,22.10
2023-12-03T09:30:25.444Z,22.70
2023-12-03T09:31:57.535Z,22.00
2023-12-03T09:33:29.662Z,19.60
2023-12-03T09:35:02.078Z,21.20
2023-12-03T09:36:35.177Z,17.70
2023-12-03T09:38:06.998Z,20.30
2023-12-03T09:39:38.811Z,19.90
2023-12-03T09:41:14.885Z,20.80
2023-12-03T09:42:48.672Z,19.90
2023-12-03T09:45:05.381Z,18.70
2023-12-03T09:46:40.148Z,21.30
2023-12-03T09:48:17.795Z,20.10
2023-12-03T09:49:55.353Z,19.50
2023-12-03T09:51:28.521Z,19.50
2023-12-03T09:53:03.759Z,20.90
2023-12-03T09:54:38.739Z,16.70
2023-12-03T09:56:13.092Z,20.70
2023-12-03T09:57:48.601Z,19.00
2023-12-03T09:59:20.607Z,21.20
2023-12-03T10:00:55.618Z,21.40
2023-12-03T10:02:30.160Z,19.30
2023-12-03T10:04:02.298Z,20.20
2023-12-03T10:05:34.183Z,19.80
2023-12-03T10:07:09.003Z,21.10
2023-12-03T10:08:43.265Z,22.00
2023-12-03T10:10:21.169Z,18.80
2023-12-03T10:12:04.175Z,20.30
2023-12-03T10:13:37.375Z,20.10
2023-12-03T10:15:13.676Z,19.20
2023-12-03T10:16:52.514Z,19.30
2023-12-03T10:18:24.627Z,19.70
2023-12-03T10:20:19.184Z,19.80
2023-12-03T10:21:53.145Z,16.90
2023-12-03T10:23:25.314Z,16.40
2023-12-03T10:24:57.116Z,19.40
2023-12-03T10:26:29.153Z,17.70
2023-12-03T10:28:04.943Z,21.50
2023-12-03T10:29:38.769Z,16.00
2023-12-03T10:31:14.113Z,16.70
2023-12-03T10:32:46.500Z,18.40
2023-12-03T10:34:19.448Z,16.90
2023-12-03T10:35:51.724Z,17.20
2023-12-03T10:37:23.614Z,17.50
2023-12-03T10:38:56.843Z,18.80
2023-12-03T10:40:28.875Z,15.80
2023-12-03T10:42:00.675Z,17.50
2023-12-03T10:43:38.890Z,16.70
2023-12-03T10:45:11.959Z,18.50
2023-12-03T10:46:43.759Z,20.10
2023-12-03T10:48:16.107Z,17.90
2023-12-03T10:49:51.950Z,18.40
2023-12-03T10:51:23.993Z,17.60
2023-12-03T10:53:01.365Z,19.00
2023-12-03T10:54:33.947Z,16.10
2023-12-03T10:56:08.734Z,18.10
2023-12-03T10:57:59.953Z,17.60
2023-12-03T10:59:35.649Z,18.40
2023-12-03T11:01:36.824Z,23.00
2023-12-03T11:03:29.338Z,16.70
2023-12-03T11:05:06.736Z,16.30
2023-12-03T11:06:41.958Z,15.60
2023-12-03T11:08:16.521Z,19.40
2023-12-03T11:09:52.714Z,18.50
2023-12-03T11:11:25.261Z,20.40
2023-12-03T11:12:58.998Z,18.00
2023-12-03T11:14:31.477Z,19.40
2023-12-03T11:16:07.917Z,15.00
2023-12-03T11:17:43.322Z,19.50
2023-12-03T11:19:20.750Z,17.60
2023-12-03T11:21:04.993Z,19.50
2023-12-03T11:23:30.961Z,20.00
2023-12-03T11:25:15.358Z,19.80
2023-12-03T11:26:47.234Z,13.70
2023-12-03T11:28:19.548Z,16.60
2023-12-03T11:29:57.232Z,18.20
2023-12-03T11:31:29.064Z,17.60
2023-12-03T11:33:01.495Z,18.10
2023-12-03T11:34:33.617Z,20.50
2023-12-03T11:36:06.064Z,18.40
2023-12-03T11:37:44.300Z,19.00
2023-12-03T11:39:16.720Z,19.00
2023-12-03T11:40:50.870Z,17.20
2023-12-03T11:42:25.684Z,18.30
2023-12-03T11:44:23.988Z,18.80
2023-12-03T11:45:56.851Z,15.80
2023-12-03T11:47:29.390Z,18.50
2023-12-03T11:49:01.462Z,16.10
2023-12-03T11:50:42.934Z,18.40
2023-12-03T11:52:16.296Z,17.40
2023-12-03T11:54:02.532Z,17.30
2023-12-03T11:55:38.482Z,19.50
2023-12-03T11:57:16.990Z,18.50
2023-12-03T11:58:48.788Z,21.40
2023-12-03T12:00:20.982Z,18.90
2023-12-03T12:01:53.008Z,18.50
2023-12-03T12:03:26.862Z,16.70
2023-12-03T12:05:06.194Z,17.90
2023-12-03T12:06:38.497Z,20.40
2023-12-03T12:08:10.427Z,19.60
2023-12-03T12:09:42.306Z,19.90
2023-12-03T12:11:14.248Z,18.60
2023-12-03T12:12:46.097Z,19.40
2023-12-03T12:14:19.516Z,18.60
2023-12-03T12:15:51.867Z,16.20
2023-12-03T12:17:23.643Z,23.50
2023-12-03T12:18:55.454Z,18.60
2023-12-03T12:20:31.762Z,18.50
2023-12-03T12:22:03.747Z,19.10
2023-12-03T12:23:35.843Z,18.80
2023-12-03T12:25:08.933Z,20.40
2023-12-03T12:26:40.844Z,19.60
2023-12-03T12:28:12.731Z,19.50
2023-12-03T12:29:46.374Z,20.30
2023-12-03T12:31:21.119Z,17.60
2023-12-03T12:32:59.845Z,21.60
2023-12-03T12:34:32.223Z,18.50
2023-12-03T12:36:04.807Z,17.60
2023-12-03T12:37:40.683Z,16.90
2023-12-03T12:39:30.443Z,16.20
2023-12-03T12:41:02.525Z,18.00
2023-12-03T12:42:34.583Z,17.60
2023-12-03T12:44:06.509Z,13.00
2023-12-03T12:45:40.508Z,19.50
2023-12-03T12:47:14.067Z,19.20
2023-12-03T12:48:45.926Z,16.90
2023-12-03T12:50:18.143Z,17.30
2023-12-03T12:51:50.452Z,17.40
2023-12-03T12:53:22.375Z,18.20
2023-12-03T12:54:58.988Z,20.30
2023-12-03T12:56:35.746Z,19.00
2023-12-03T12:58:09.166Z,18.40
2023-12-03T12:59:42.142Z,18.40
2023-12-03T13:01:14.020Z,17.70
2023-12-03T13:02:45.932Z,20.70
2023-12-03T13:04:17.891Z,18.70
2023-12-03T13:05:49.877Z,18.40
2023-12-03T13:07:21.752Z,18.20
2023-12-03T13:08:53.593Z,16.80
2023-12-03T13:10:25.440Z,16.80
2023-12-03T13:11:57.472Z,20.80
2023-12-03T13:13:29.275Z,18.90
2023-12-03T13:15:01.361Z,15.40
2023-12-03T13:16:33.451Z,20.10
2023-12-03T13:18:13.346Z,22.20
2023-12-03T13:19:52.012Z,20.60
2023-12-03T13:21:23.937Z,18.10
2023-12-03T13:22:55.795Z,19.90
2023-12-03T13:24:27.785Z,19.40
2023-12-03T13:25:59.858Z,20.70
2023-12-03T13:27:31.660Z,20.00
2023-12-03T13:29:03.471Z,21.00
2023-12-03T13:30:36.446Z,18.90
2023-12-03T13:32:08.558Z,20.60
2023-12-03T13:33:40.459Z,20.50
2023-12-03T13:35:15.957Z,19.60
2023-12-03T13:36:47.700Z,16.80
2023-12-03T13:38:19.487Z,17.30
2023-12-03T13:39:51.419Z,18.40
2023-12-03T13:41:30.018Z,20.10
2023-12-03T13:43:03.314Z,21.00
2023-12-03T13:44:35.293Z,19.90
2023-12-03T13:46:07.734Z,19.70
2023-12-03T13:47:39.581Z,21.80
2023-12-03T13:49:11.821Z,20.60
2023-12-03T13:50:43.739Z,21.50
2023-12-03T13:52:16.304Z,20.10
2023-12-03T13:53:49.650Z,20.80
2023-12-03T13:55:21.871Z,17.60
2023-12-03T13:56:53.669Z,20.40
2023-12-03T13:58:25.532Z,19.90
2023-12-03T13:59:57.507Z,21.10
2023-12-03T14:01:29.379Z,18.90
2023-12-03T14:03:01.462Z,21.40
2023-12-03T14:04:34.356Z,21.10
2023-12-03T14:06:07.296Z,19.10
2023-12-03T14:07:39.702Z,20.50
2023-12-03T14:09:16.247Z,19.90
2023-12-03T14:10:48.203Z,22.60
2023-12-03T14:12:20.132Z,18.10
2023-12-03T14:13:52.050Z,21.50
2023-12-03T14:15:23.897Z,22.00
2023-12-03T14:17:00.270Z,20.70
2023-12-03T14:18:32.195Z,21.10
2023-12-03T14:20:07.480Z,18.20
2023-12-03T14:21:39.373Z,18.20
2023-12-03T14:23:11.253Z,18.50
2023-12-03T14:24:45.458Z,19.80
2023-12-03T14:26:17.332Z,15.40
2023-12-03T14:27:49.224Z,18.90
2023-12-03T14:29:21.177Z,19.10
2023-12-03T14:30:53.687Z,21.80
2023-12-03T14:32:25.700Z,19.40
2023-12-03T14:33:57.600Z,18.40
2023-12-03T14:35:29.761Z,18.90
2023-12-03T14:37:01.562Z,18.10
2023-12-03T14:38:33.461Z,19.60
2023-12-03T14:40:08.701Z,21.60
2023-12-03T14:41:43.376Z,20.90
2023-12-03T14:43:15.342Z,21.30
2023-12-03T14:44:47.327Z,21.20
2023-12-03T14:46:21.357Z,22.60
2023-12-03T14:47:53.406Z,19.20
2023-12-03T14:49:25.229Z,21.90
2023-12-03T14:50:57.436Z,21.30
2023-12-03T14:52:29.222Z,22.40
2023-12-03T14:54:01.809Z,19.30
2023-12-03T14:55:33.650Z,17.90
2023-12-03T14:57:05.898Z,21.80
2023-12-03T14:58:37.795Z,19.90
2023-12-03T15:00:15.426Z,17.70
2023-12-03T15:01:47.623Z,21.30
2023-12-03T15:03:19.677Z,24.40
2023-12-03T15:04:51.496Z,18.80
2023-12-03T15:06:23.519Z,21.50
2023-12-03T15:07:57.742Z,19.50
2023-12-03T15:09:30.854Z,22.30
2023-12-03T15:11:02.779Z,22.40
2023-12-03T15:12:35.572Z,23.00
2023-12-03T15:14:07.864Z,22.90
2023-12-03T15:15:39.685Z,24.50
2023-12-03T15:17:11.718Z,22.00
2023-12-03T15:18:44.206Z,22.90
2023-12-03T15:20:17.019Z,24.60
2023-12-03T15:21:48.866Z,20.60
2023-12-03T15:23:21.203Z,18.80
2023-12-03T15:24:53.098Z,23.80
2023-12-03T15:26:24.825Z,22.80
2023-12-03T15:27:56.659Z,23.80
2023-12-03T15:29:28.605Z,23.10
2023-12-03T15:31:00.621Z,22.60
2023-12-03T15:32:33.153Z,24.00
2023-12-03T15:34:05.436Z,20.40
2023-12-03T15:35:37.433Z,21.60
2023-12-03T15:37:10.299Z,23.90
2023-12-03T15:38:42.084Z,22.60
2023-12-03T15:40:13.914Z,22.50
2023-12-03T15:41:45.752Z,20.10
2023-12-03T15:43:23.357Z,24.10
2023-12-03T15:45:01.735Z,18.50
2023-12-03T15:46:33.573Z,20.60
2023-12-03T15:48:05.944Z,22.50
2023-12-03T15:49:37.838Z,22.20
2023-12-03T15:51:10.275Z,22.80
2023-12-03T15:52:42.170Z,23.00
2023-12-03T15:54:13.964Z,21.80
2023-12-03T15:55:47.813Z,24.00
2023-12-03T15:57:19.668Z,26.40
2023-12-03T15:58:51.525Z,24.10
2023-12-03T16:00:23.620Z,20.20
2023-12-03T16:01:55.851Z,23.40
2023-12-03T16:03:28.019Z,25.10
2023-12-03T16:05:00.379Z,28.00
2023-12-03T16:06:32.229Z,24.70
2023-12-03T16:08:04.287Z,26.20
2023-12-03T16:09:36.199Z,27.50
2023-12-03T16:11:08.166Z,27.30
2023-12-03T16:12:40.038Z,25.50
2023-12-03T16:14:11.853Z,21.00
2023-12-03T16:15:43.803Z,22.90
2023-12-03T16:17:19.408Z,28.30
2023-12-03T16:18:55.809Z,33.90
2023-12-03T16:20:28.617Z,27.80
2023-12-03T16:22:00.628Z,25.30
2023-12-03T16:23:32.409Z,24.60
2023-12-03T16:25:05.365Z,26.60
2023-12-03T16:26:37.077Z,25.80
2023-12-03T16:28:08.837Z,24.90
2023-12-03T16:29:40.586Z,22.40
2023-12-03T16:31:12.410Z,26.30
2023-12-03T16:32:45.117Z,25.80
2023-12-03T16:34:28.688Z,26.90
2023-12-03T16:36:00.946Z,22.70
2023-12-03T16:37:33.545Z,25.30
2023-12-03T16:39:08.981Z,26.90
2023-12-03T16:40:40.692Z,23.80
2023-12-03T16:42:14.232Z,26.20
2023-12-03T16:43:46.261Z,26.60
2023-12-03T16:45:18.105Z,21.60
2023-12-03T16:46:49.947Z,26.50
2023-12-03T16:48:23.489Z,23.90
2023-12-03T16:49:55.507Z,29.50
2023-12-03T16:51:27.785Z,27.00
2023-12-03T16:53:00.952Z,24.30
2023-12-03T16:54:32.887Z,31.30
2023-12-03T16:56:07.367Z,23.30
2023-12-03T16:57:39.456Z,22.80
2023-12-03T16:59:11.455Z,25.20
2023-12-03T17:00:43.316Z,27.50
2023-12-03T17:02:15.531Z,26.10
2023-12-03T17:03:47.478Z,25.50
2023-12-03T17:05:19.380Z,24.50
2023-12-03T17:06:51.380Z,25.00
2023-12-03T17:08:23.440Z,22.40
2023-12-03T17:09:55.600Z,25.90
2023-12-03T17:11:27.545Z,21.40
2023-12-03T17:13:00.381Z,27.00
2023-12-03T17:14:32.153Z,20.00
2023-12-03T17:16:04.662Z,25.10
2023-12-03T17:17:37.078Z,26.00
2023-12-03T17:19:09.309Z,21.50
2023-12-03T17:20:45.107Z,21.90
2023-12-03T17:22:16.900Z,22.70
2023-12-03T17:23:48.711Z,26.70
2023-12-03T17:25:20.523Z,21.10
2023-12-03T17:26:54.728Z,22.80
2023-12-03T17:28:26.579Z,23.90
2023-12-03T17:29:58.695Z,27.90
2023-12-03T17:31:30.460Z,32.70
2023-12-03T17:33:02.407Z,24.20
2023-12-03T17:34:34.305Z,25.70
2023-12-03T17:36:08.190Z,26.10
2023-12-03T17:37:40.115Z,27.10
2023-12-03T17:39:12.087Z,26.80
2023-12-03T17:40:44.054Z,25.50
2023-12-03T17:42:18.850Z,25.80
2023-12-03T17:43:52.662Z,25.50
2023-12-03T17:45:27.541Z,27.00
2023-12-03T17:46:59.589Z,24.60
2023-12-03T17:48:31.817Z,21.00
2023-12-03T17:50:05.356Z,25.50
2023-12-03T17:51:37.224Z,22.60
2023-12-03T17:53:09.133Z,24.90
2023-12-03T17:54:41.082Z,23.40
2023-12-03T17:56:13.397Z,24.30
2023-12-03T17:57:45.210Z,20.50
2023-12-03T17:59:17.016Z,23.90
2023-12-03T18:00:50.246Z,23.10
2023-12-03T18:02:23.338Z,24.40
2023-12-03T18:03:55.198Z,22.90
2023-12-03T18:05:27.666Z,22.90
2023-12-03T18:06:59.596Z,21.90
2023-12-03T18:08:31.415Z,23.20
2023-12-03T18:10:04.670Z,22.00
2023-12-03T18:11:37.144Z,24.40
2023-12-03T18:13:09.601Z,25.40
2023-12-03T18:14:41.356Z,23.90
2023-12-03T18:16:13.274Z,19.90
2023-12-03T18:17:45.091Z,23.60
2023-12-03T18:19:17.129Z,29.90
2023-12-03T18:20:49.113Z,28.20
2023-12-03T18:22:20.996Z,21.90
2023-12-03T18:23:52.913Z,24.20
2023-12-03T18:25:24.759Z,23.50
2023-12-03T18:26:56.571Z,16.60
2023-12-03T18:28:28.343Z,20.00
2023-12-03T18:30:00.592Z,21.10
2023-12-03T18:31:32.477Z,21.50
2023-12-03T18:33:05.646Z,23.10
2023-12-03T18:34:37.541Z,21.40
2023-12-03T18:36:20.191Z,26.80
2023-12-03T18:37:52.108Z,22.50
2023-12-03T18:39:23.980Z,22.40
2023-12-03T18:40:57.258Z,24.90
2023-12-03T18:42:29.466Z,23.40
2023-12-03T18:44:23.717Z,18.50
2023-12-03T18:45:55.580Z,21.70
2023-12-03T18:47:27.681Z,22.50
2023-12-03T18:49:01.027Z,22.60
2023-12-03T18:50:33.299Z,21.70
2023-12-03T18:52:15.890Z,21.30
2023-12-03T18:53:47.707Z,21.50
2023-12-03T18:55:19.847Z,17.60
2023-12-03T18:56:51.638Z,17.80
2023-12-03T18:58:25.206Z,20.40
2023-12-03T18:59:57.557Z,23.00
2023-12-03T19:01:29.603Z,18.50
2023-12-03T19:03:01.563Z,20.80
2023-12-03T19:04:33.537Z,19.90
2023-12-03T19:06:05.920Z,19.20
2023-12-03T19:07:38.802Z,21.00
2023-12-03T19:09:17.141Z,17.20
2023-12-03T19:10:56.203Z,21.50
2023-12-03T19:12:28.706Z,21.10
2023-12-03T19:14:03.680Z,18.10
2023-12-03T19:15:37.724Z,26.40
2023-12-03T19:17:14.742Z,16.00
2023-12-03T19:18:48.402Z,22.10
2023-12-03T19:20:28.753Z,23.60
2023-12-03T19:22:01.001Z,22.50
2023-12-03T19:23:32.907Z,19.50
2023-12-03T19:25:06.414Z,21.50
2023-12-03T19:26:45.733Z,19.70
2023-12-03T19:28:17.943Z,20.80
2023-12-03T19:29:50.265Z,17.70
2023-12-03T19:31:22.104Z,20.40
2023-12-03T19:32:53.922Z,21.50
2023-12-03T19:34:25.814Z,21.50
2023-12-03T19:35:58.085Z,18.40
2023-12-03T19:37:30.458Z,19.30
2023-12-03T19:39:02.276Z,24.10
2023-12-03T19:40:34.960Z,20.60
2023-12-03T19:42:09.600Z,24.50
2023-12-03T19:43:44.782Z,23.30
2023-12-03T19:45:17.488Z,24.80
2023-12-03T19:46:53.894Z,23.20
2023-12-03T19:48:32.774Z,23.50
2023-12-03T19:50:07.809Z,24.50
2023-12-03T19:51:39.737Z,23.00
2023-12-03T19:53:13.422Z,22.20
2023-12-03T19:54:45.425Z,22.00
2023-12-03T19:56:17.822Z,27.00
2023-12-03T19:57:51.390Z,23.80
2023-12-03T19:59:23.222Z,27.70
2023-12-03T20:00:55.137Z,26.80
2023-12-03T20:02:27.204Z,24.50